Terminal Aerodrome Forecast
Issued by NWS

Home | Current Version | Previous Version | Text Only | Print | Product List | Glossary On
Versions: 1 2 3 4 5 6 7 8 9 10 11 12 13 14 15 16 17
122
FTUS42 KTAE 231125
TAFVLD
TAF
KVLD 231125Z 2312/2412 04006KT 6SM BR SCT007 BKN025
      TEMPO 2312/2315 BKN007
     FM231600 05010KT P6SM SCT025
     FM231800 06010KT P6SM SCT100
     FM240600 VRB03KT 4SM BR SCT003=

USA.gov is the U.S. government's official web portal to all federal, state and local government web resources and services.